createdAt,value
2023-04-17T00:00:11.263Z,100300.44
2023-04-17T00:02:40.758Z,100296.09
2023-04-17T00:05:10.385Z,100294.28
2023-04-17T00:07:39.714Z,100292.59
2023-04-17T00:10:11.743Z,100294.63
2023-04-17T00:12:40.145Z,100293.25
2023-04-17T00:15:09.655Z,100292.44
2023-04-17T00:17:38.304Z,100289.94
2023-04-17T00:20:10.732Z,100291.00
2023-04-17T00:22:39.526Z,100288.34
2023-04-17T00:25:13.094Z,100291.75
2023-04-17T00:27:42.148Z,100286.50
2023-04-17T00:30:11.246Z,100290.84
2023-04-17T00:32:39.728Z,100289.13
2023-04-17T00:35:08.989Z,100287.38
2023-04-17T00:37:37.573Z,100288.34
2023-04-17T00:40:06.977Z,100286.66
2023-04-17T00:42:37.089Z,100291.97
2023-04-17T00:45:06.386Z,100291.25
2023-04-17T00:47:34.944Z,100292.34
2023-04-17T00:50:04.821Z,100294.28
2023-04-17T00:52:33.478Z,100296.97
2023-04-17T00:55:03.365Z,100291.88
2023-04-17T00:57:31.747Z,100289.31
2023-04-17T01:00:01.873Z,100296.34
2023-04-17T01:02:31.547Z,100290.31
2023-04-17T01:05:00.219Z,100288.72
2023-04-17T01:07:29.204Z,100295.00
2023-04-17T01:09:57.709Z,100291.63
2023-04-17T01:12:27.048Z,100294.25
2023-04-17T01:14:56.964Z,100289.94
2023-04-17T01:17:28.518Z,100289.97
2023-04-17T01:19:57.900Z,100288.22
2023-04-17T01:22:26.482Z,100285.50
2023-04-17T01:25:00.946Z,100288.09
2023-04-17T01:27:36.519Z,100289.06
2023-04-17T01:30:05.666Z,100284.91
2023-04-17T01:32:40.529Z,100283.19
2023-04-17T01:35:09.731Z,100280.69
2023-04-17T01:37:38.263Z,100290.31
2023-04-17T01:40:10.267Z,100285.09
2023-04-17T01:42:39.054Z,100286.06
2023-04-17T01:45:08.838Z,100284.44
2023-04-17T01:47:37.715Z,100286.19
2023-04-17T01:50:09.285Z,100280.09
2023-04-17T01:52:39.979Z,100281.00
2023-04-17T01:55:11.076Z,100282.84
2023-04-17T01:57:39.388Z,100284.69
2023-04-17T02:00:09.489Z,100284.94
2023-04-17T02:02:44.816Z,100287.81
2023-04-17T02:05:13.456Z,100291.59
2023-04-17T02:07:41.902Z,100292.50
2023-04-17T02:10:12.068Z,100292.44
2023-04-17T02:12:41.201Z,100303.84
2023-04-17T02:15:11.109Z,100307.34
2023-04-17T02:17:39.884Z,100299.56
2023-04-17T02:20:09.476Z,100296.06
2023-04-17T02:22:37.862Z,100300.34
2023-04-17T02:25:07.147Z,100300.22
2023-04-17T02:27:37.024Z,100296.78
2023-04-17T02:30:07.921Z,100295.94
2023-04-17T02:32:36.185Z,100301.19
2023-04-17T02:35:06.686Z,100300.44
2023-04-17T02:37:36.392Z,100299.53
2023-04-17T02:40:06.972Z,100307.50
2023-04-17T02:42:37.572Z,100305.84
2023-04-17T02:45:06.737Z,100303.25
2023-04-17T02:47:35.258Z,100305.84
2023-04-17T02:50:04.927Z,100314.56
2023-04-17T02:52:40.986Z,100312.78
2023-04-17T02:55:10.056Z,100306.69
2023-04-17T02:57:41.581Z,100313.63
2023-04-17T03:00:13.654Z,100311.06
2023-04-17T03:02:43.022Z,100305.06
2023-04-17T03:05:15.109Z,100316.31
2023-04-17T03:07:44.547Z,100311.16
2023-04-17T03:10:13.644Z,100308.47
2023-04-17T03:12:43.457Z,100312.75
2023-04-17T03:15:14.220Z,100310.91
2023-04-17T03:17:42.786Z,100313.41
2023-04-17T03:20:13.618Z,100313.25
2023-04-17T03:22:42.076Z,100316.53
2023-04-17T03:25:11.252Z,100318.19
2023-04-17T03:27:47.795Z,100319.06
2023-04-17T03:30:17.909Z,100324.28
2023-04-17T03:32:49.704Z,100321.72
2023-04-17T03:35:18.247Z,100320.97
2023-04-17T03:37:46.891Z,100326.06
2023-04-17T03:40:15.796Z,100331.25
2023-04-17T03:42:48.062Z,100317.31
2023-04-17T03:45:17.220Z,100326.94
2023-04-17T03:47:48.445Z,100335.53
2023-04-17T03:50:17.530Z,100334.56
2023-04-17T03:52:53.090Z,100342.31
2023-04-17T03:55:22.086Z,100340.50
2023-04-17T03:57:52.845Z,100336.22
2023-04-17T04:00:22.576Z,100338.03
2023-04-17T04:02:57.253Z,100342.44
2023-04-17T04:05:35.281Z,100343.34
2023-04-17T04:08:04.872Z,100341.56
2023-04-17T04:10:45.653Z,100340.75
2023-04-17T04:13:21.036Z,100348.53
2023-04-17T04:16:01.363Z,100350.03
2023-04-17T04:18:31.808Z,100354.22
2023-04-17T04:21:00.849Z,100355.84
2023-04-17T04:23:34.749Z,100353.94
2023-04-17T04:26:03.522Z,100354.59
2023-04-17T04:28:43.972Z,100355.25
2023-04-17T04:31:33.901Z,100359.41
2023-04-17T04:34:06.258Z,100361.00
2023-04-17T04:36:36.441Z,100366.06
2023-04-17T04:39:21.920Z,100358.91
2023-04-17T04:41:52.212Z,100351.66
2023-04-17T04:44:25.651Z,100362.75
2023-04-17T04:46:58.201Z,100361.66
2023-04-17T04:49:27.637Z,100355.41
2023-04-17T04:51:57.183Z,100363.91
2023-04-17T04:54:33.626Z,100358.47
2023-04-17T04:57:03.850Z,100355.63
2023-04-17T04:59:36.757Z,100358.91
2023-04-17T05:02:26.326Z,100351.88
2023-04-17T05:04:55.729Z,100356.06
2023-04-17T05:07:25.073Z,100362.72
2023-04-17T05:09:55.004Z,100356.22
2023-04-17T05:12:23.947Z,100366.38
2023-04-17T05:14:54.154Z,100365.94
2023-04-17T05:17:22.921Z,100368.91
2023-04-17T05:19:51.862Z,100361.59
2023-04-17T05:22:22.224Z,100359.53
2023-04-17T05:25:03.991Z,100355.78
2023-04-17T05:27:32.671Z,100365.06
2023-04-17T05:30:05.374Z,100371.03
2023-04-17T05:32:35.242Z,100364.75
2023-04-17T05:35:39.041Z,100370.81
2023-04-17T05:38:09.902Z,100379.47
2023-04-17T05:40:38.681Z,100377.56
2023-04-17T05:43:09.472Z,100380.19
2023-04-17T05:45:41.658Z,100387.22
2023-04-17T05:48:11.381Z,100388.25
2023-04-17T05:50:40.492Z,100390.09
2023-04-17T05:53:10.406Z,100386.59
2023-04-17T05:55:50.852Z,100385.88
2023-04-17T05:58:24.088Z,100393.78
2023-04-17T06:00:59.208Z,100406.09
2023-04-17T06:03:30.182Z,100402.63
2023-04-17T06:06:19.533Z,100401.72
2023-04-17T06:08:48.503Z,100400.69
2023-04-17T06:11:17.416Z,100412.88
2023-04-17T06:13:47.710Z,100413.75
2023-04-17T06:16:20.048Z,100411.06
2023-04-17T06:18:50.861Z,100403.88
2023-04-17T06:21:19.833Z,100409.91
2023-04-17T06:23:48.811Z,100410.16
2023-04-17T06:26:19.018Z,100400.84
2023-04-17T06:28:49.174Z,100407.63
2023-04-17T06:31:20.246Z,100412.72
2023-04-17T06:33:50.365Z,100415.38
2023-04-17T06:36:22.324Z,100413.50
2023-04-17T06:38:54.916Z,100421.06
2023-04-17T06:41:24.674Z,100418.19
2023-04-17T06:43:55.707Z,100413.75
2023-04-17T06:46:26.377Z,100412.72
2023-04-17T06:48:58.231Z,100415.41
2023-04-17T06:51:28.307Z,100418.75
2023-04-17T06:53:59.013Z,100419.34
2023-04-17T06:56:28.203Z,100418.16
2023-04-17T06:58:58.135Z,100424.84
2023-04-17T07:01:29.647Z,100433.44
2023-04-17T07:03:58.930Z,100435.84
2023-04-17T07:06:27.893Z,100434.81
2023-04-17T07:08:56.749Z,100445.97
2023-04-17T07:11:26.335Z,100442.28
2023-04-17T07:13:55.382Z,100452.78
2023-04-17T07:16:24.446Z,100457.31
2023-04-17T07:18:54.848Z,100462.56
2023-04-17T07:21:23.747Z,100461.72
2023-04-17T07:23:54.038Z,100458.19
2023-04-17T07:26:23.274Z,100458.91
2023-04-17T07:28:52.258Z,100463.28
2023-04-17T07:31:22.404Z,100467.69
2023-04-17T07:33:51.608Z,100465.00
2023-04-17T07:36:21.688Z,100474.53
2023-04-17T07:38:50.794Z,100474.59
2023-04-17T07:41:20.041Z,100473.88
2023-04-17T07:43:48.823Z,100475.56
2023-04-17T07:46:17.832Z,100478.31
2023-04-17T07:48:46.502Z,100473.06
2023-04-17T07:51:14.993Z,100491.38
2023-04-17T07:53:45.661Z,100484.59
2023-04-17T07:56:14.582Z,100480.31
2023-04-17T07:58:45.151Z,100480.38
2023-04-17T08:01:14.278Z,100482.13
2023-04-17T08:03:45.532Z,100491.56
2023-04-17T08:06:14.192Z,100496.56
2023-04-17T08:08:47.617Z,100500.84
2023-04-17T08:11:17.973Z,100507.84
2023-04-17T08:13:46.951Z,100514.94
2023-04-17T08:16:16.025Z,100511.50
2023-04-17T08:18:44.767Z,100515.78
2023-04-17T08:21:13.247Z,100518.56
2023-04-17T08:23:43.274Z,100522.88
2023-04-17T08:26:12.987Z,100517.53
2023-04-17T08:28:43.018Z,100527.81
2023-04-17T08:31:11.955Z,100523.00
2023-04-17T08:33:40.600Z,100524.19
2023-04-17T08:36:10.695Z,100527.31
2023-04-17T08:39:25.142Z,100525.03
2023-04-17T08:42:01.201Z,100524.44
2023-04-17T08:44:33.009Z,100520.09
2023-04-17T08:47:02.798Z,100527.31
2023-04-17T08:49:32.006Z,100521.59
2023-04-17T08:52:04.247Z,100519.50
2023-04-17T08:54:35.710Z,100526.75
2023-04-17T08:57:05.283Z,100528.88
2023-04-17T08:59:35.625Z,100524.94
2023-04-17T09:02:06.894Z,100536.47
2023-04-17T09:04:40.731Z,100532.19
2023-04-17T09:07:10.864Z,100540.81
2023-04-17T09:09:50.109Z,100530.25
2023-04-17T09:12:19.112Z,100531.03
2023-04-17T09:14:49.386Z,100529.16
2023-04-17T09:17:19.610Z,100533.63
2023-04-17T09:20:07.780Z,100529.75
2023-04-17T09:22:37.759Z,100525.41
2023-04-17T09:25:16.510Z,100529.63
2023-04-17T09:27:45.218Z,100531.78
2023-04-17T09:30:16.356Z,100528.53
2023-04-17T09:32:45.292Z,100531.13
2023-04-17T09:35:26.316Z,100535.31
2023-04-17T09:37:56.853Z,100527.28
2023-04-17T09:40:26.838Z,100531.19
2023-04-17T09:43:02.303Z,100530.91
2023-04-17T09:45:36.341Z,100527.78
2023-04-17T09:48:08.468Z,100528.00
2023-04-17T09:50:38.660Z,100527.16
2023-04-17T09:53:09.286Z,100521.97
2023-04-17T09:55:39.698Z,100520.16
2023-04-17T09:58:12.075Z,100517.47
2023-04-17T10:00:43.256Z,100525.28
2023-04-17T10:03:17.439Z,100516.75
2023-04-17T10:05:47.163Z,100520.75
2023-04-17T10:08:16.842Z,100504.75
2023-04-17T10:10:47.153Z,100516.25
2023-04-17T10:13:16.989Z,100510.66
2023-04-17T10:15:48.142Z,100507.41
2023-04-17T10:18:23.565Z,100520.69
2023-04-17T10:20:55.708Z,100517.88
2023-04-17T10:23:35.496Z,100515.03
2023-04-17T10:26:41.024Z,100504.38
2023-04-17T10:29:10.423Z,100508.72
2023-04-17T10:32:26.209Z,100501.84
2023-04-17T10:34:58.406Z,100504.13
2023-04-17T10:38:00.124Z,100512.66
2023-04-17T10:40:32.175Z,100511.38
2023-04-17T10:43:12.528Z,100509.19
2023-04-17T10:45:56.818Z,100506.41
2023-04-17T10:48:30.143Z,100510.19
2023-04-17T10:51:01.271Z,100498.97
2023-04-17T10:53:44.453Z,100507.91
2023-04-17T10:56:19.172Z,100508.09
2023-04-17T10:58:59.650Z,100502.38
2023-04-17T11:01:31.038Z,100502.94
2023-04-17T11:04:00.924Z,100503.31
2023-04-17T11:06:33.396Z,100507.56
2023-04-17T11:09:02.434Z,100505.44
2023-04-17T11:11:43.651Z,100505.72
2023-04-17T11:14:15.917Z,100503.81
2023-04-17T11:16:46.523Z,100503.66
2023-04-17T11:19:21.857Z,100513.13
2023-04-17T11:21:54.222Z,100514.31
2023-04-17T11:24:26.932Z,100509.53
2023-04-17T11:26:56.696Z,100516.28
2023-04-17T11:29:26.392Z,100513.19
2023-04-17T11:31:57.290Z,100509.88
2023-04-17T11:34:27.503Z,100518.56
2023-04-17T11:36:59.519Z,100524.34
2023-04-17T11:39:31.047Z,100517.97
2023-04-17T11:42:00.706Z,100519.94
2023-04-17T11:44:33.091Z,100521.56
2023-04-17T11:47:04.155Z,100530.22
2023-04-17T11:49:33.962Z,100526.56
2023-04-17T11:52:05.922Z,100523.78
2023-04-17T11:54:38.010Z,100521.22
2023-04-17T11:57:08.491Z,100530.22
2023-04-17T11:59:39.209Z,100530.56
2023-04-17T12:02:09.370Z,100529.03
2023-04-17T12:04:40.261Z,100532.94
2023-04-17T12:07:24.227Z,100535.75
2023-04-17T12:09:58.406Z,100538.41
2023-04-17T12:12:27.669Z,100531.75
2023-04-17T12:14:56.344Z,100547.69
2023-04-17T12:17:25.866Z,100541.69
2023-04-17T12:19:54.610Z,100541.91
2023-04-17T12:22:24.664Z,100539.13
2023-04-17T12:24:53.803Z,100545.66
2023-04-17T12:27:22.637Z,100536.63
2023-04-17T12:29:51.538Z,100539.28
2023-04-17T12:32:20.999Z,100531.28
2023-04-17T12:34:50.437Z,100538.25
2023-04-17T12:37:20.181Z,100540.28
2023-04-17T12:39:50.696Z,100544.97
2023-04-17T12:42:19.252Z,100547.19
2023-04-17T12:44:48.506Z,100550.25
2023-04-17T12:47:17.319Z,100541.97
2023-04-17T12:49:46.304Z,100549.75
2023-04-17T12:52:15.172Z,100551.78
2023-04-17T12:54:44.475Z,100543.25
2023-04-17T12:57:15.527Z,100556.06
2023-04-17T12:59:44.620Z,100545.94
2023-04-17T13:02:13.292Z,100544.19
2023-04-17T13:04:42.375Z,100547.91
2023-04-17T13:07:12.072Z,100549.78
2023-04-17T13:09:40.967Z,100552.50
2023-04-17T13:12:09.868Z,100559.75
2023-04-17T13:14:41.202Z,100553.53
2023-04-17T13:17:10.576Z,100557.25
2023-04-17T13:19:40.323Z,100552.28
2023-04-17T13:22:09.576Z,100547.81
2023-04-17T13:24:38.237Z,100557.56
2023-04-17T13:27:06.971Z,100555.94
2023-04-17T13:29:36.008Z,100556.19
2023-04-17T13:32:07.673Z,100547.94
2023-04-17T13:34:36.748Z,100544.84
2023-04-17T13:37:05.760Z,100543.75
2023-04-17T13:39:34.583Z,100542.50
2023-04-17T13:42:04.392Z,100543.50
2023-04-17T13:44:33.647Z,100541.75
2023-04-17T13:47:03.963Z,100537.47
2023-04-17T13:49:34.586Z,100544.72
2023-04-17T13:52:03.499Z,100544.84
2023-04-17T13:54:34.131Z,100542.34
2023-04-17T13:57:02.956Z,100544.38
2023-04-17T13:59:32.870Z,100549.81
2023-04-17T14:02:04.232Z,100546.06
2023-04-17T14:04:35.040Z,100540.66
2023-04-17T14:07:04.552Z,100551.22
2023-04-17T14:09:34.197Z,100550.44
2023-04-17T14:12:03.171Z,100545.16
2023-04-17T14:14:32.046Z,100542.53
2023-04-17T14:17:00.991Z,100534.69
2023-04-17T14:19:29.910Z,100543.38
2023-04-17T14:21:59.963Z,100548.63
2023-04-17T14:24:29.168Z,100533.28
2023-04-17T14:26:58.620Z,100545.63
2023-04-17T14:29:28.062Z,100544.84
2023-04-17T14:31:57.141Z,100541.25
2023-04-17T14:34:26.876Z,100541.59
2023-04-17T14:36:58.049Z,100539.88
2023-04-17T14:39:31.520Z,100542.38
2023-04-17T14:42:02.372Z,100534.69
2023-04-17T14:44:35.864Z,100545.63
2023-04-17T14:47:06.902Z,100537.09
2023-04-17T14:49:39.292Z,100538.84
2023-04-17T14:52:08.196Z,100533.81
2023-04-17T14:54:38.750Z,100543.75
2023-04-17T14:57:07.690Z,100543.38
2023-04-17T14:59:37.317Z,100547.09
2023-04-17T15:02:07.370Z,100532.41
2023-04-17T15:04:36.816Z,100538.56
2023-04-17T15:07:05.572Z,100534.38
2023-04-17T15:09:34.776Z,100538.00
2023-04-17T15:12:05.823Z,100534.81
2023-04-17T15:14:34.396Z,100541.00
2023-04-17T15:17:07.066Z,100535.06
2023-04-17T15:19:36.131Z,100537.00
2023-04-17T15:22:04.909Z,100540.78
2023-04-17T15:24:34.224Z,100537.44
2023-04-17T15:27:05.359Z,100535.00
2023-04-17T15:29:37.089Z,100536.88
2023-04-17T15:32:06.300Z,100538.88
2023-04-17T15:34:35.917Z,100535.59
2023-04-17T15:37:07.585Z,100533.44
2023-04-17T15:39:37.966Z,100534.94
2023-04-17T15:42:10.058Z,100532.66
2023-04-17T15:44:39.352Z,100532.00
2023-04-17T15:47:10.023Z,100534.28
2023-04-17T15:49:38.980Z,100541.59
2023-04-17T15:52:10.679Z,100539.13
2023-04-17T15:54:39.774Z,100542.88
2023-04-17T15:57:10.559Z,100544.66
2023-04-17T15:59:39.554Z,100534.44
2023-04-17T16:02:08.268Z,100539.00
2023-04-17T16:04:39.338Z,100542.84
2023-04-17T16:07:08.222Z,100546.78
2023-04-17T16:09:37.955Z,100545.91
2023-04-17T16:12:08.919Z,100553.75
2023-04-17T16:14:39.936Z,100548.75
2023-04-17T16:17:08.624Z,100552.28
2023-04-17T16:19:37.659Z,100552.44
2023-04-17T16:22:06.546Z,100547.16
2023-04-17T16:24:35.287Z,100541.75
2023-04-17T16:27:04.428Z,100555.06
2023-04-17T16:29:33.195Z,100556.81
2023-04-17T16:32:03.493Z,100557.88
2023-04-17T16:34:32.257Z,100565.03
2023-04-17T16:37:01.084Z,100565.09
2023-04-17T16:39:30.703Z,100566.22
2023-04-17T16:41:59.451Z,100561.97
2023-04-17T16:44:29.633Z,100567.44
2023-04-17T16:47:12.637Z,100565.84
2023-04-17T16:49:44.656Z,100566.84
2023-04-17T16:52:13.384Z,100568.56
2023-04-17T16:54:42.304Z,100570.50
2023-04-17T16:57:11.405Z,100577.59
2023-04-17T16:59:40.105Z,100569.91
2023-04-17T17:02:09.229Z,100576.97
2023-04-17T17:04:38.051Z,100578.81
2023-04-17T17:07:08.354Z,100576.31
2023-04-17T17:09:37.056Z,100581.56
2023-04-17T17:12:06.737Z,100574.78
2023-04-17T17:14:36.367Z,100582.84
2023-04-17T17:17:05.197Z,100582.84
2023-04-17T17:19:34.105Z,100578.06
2023-04-17T17:22:04.766Z,100583.38
2023-04-17T17:24:36.314Z,100591.19
2023-04-17T17:27:06.754Z,100590.34
2023-04-17T17:29:35.488Z,100592.22
2023-04-17T17:32:04.664Z,100588.69
2023-04-17T17:34:35.683Z,100597.47
2023-04-17T17:37:05.268Z,100591.47
2023-04-17T17:39:35.505Z,100593.38
2023-04-17T17:42:08.916Z,100601.53
2023-04-17T17:44:38.758Z,100604.28
2023-04-17T17:47:08.281Z,100603.41
2023-04-17T17:49:36.959Z,100608.66
2023-04-17T17:52:06.090Z,100608.78
2023-04-17T17:54:38.514Z,100607.19
2023-04-17T17:57:07.724Z,100616.81
2023-04-17T17:59:36.637Z,100616.03
2023-04-17T18:02:05.617Z,100618.75
2023-04-17T18:04:36.330Z,100627.53
2023-04-17T18:07:05.495Z,100625.84
2023-04-17T18:09:34.262Z,100621.56
2023-04-17T18:12:04.667Z,100630.31
2023-04-17T18:14:34.304Z,100637.41
2023-04-17T18:17:04.013Z,100630.41
2023-04-17T18:19:33.156Z,100623.50
2023-04-17T18:22:02.180Z,100625.41
2023-04-17T18:24:32.091Z,100627.88
2023-04-17T18:27:04.343Z,100633.06
2023-04-17T18:29:34.200Z,100635.75
2023-04-17T18:32:03.637Z,100631.41
2023-04-17T18:34:34.173Z,100635.88
2023-04-17T18:37:04.089Z,100637.69
2023-04-17T18:39:35.750Z,100632.47
2023-04-17T18:42:06.470Z,100638.69
2023-04-17T18:44:35.897Z,100647.53
2023-04-17T18:47:04.936Z,100641.38
2023-04-17T18:49:34.046Z,100647.53
2023-04-17T18:52:03.488Z,100644.13
2023-04-17T18:54:33.132Z,100644.25
2023-04-17T18:57:02.136Z,100648.63
2023-04-17T18:59:32.627Z,100645.13
2023-04-17T19:02:01.477Z,100646.16
2023-04-17T19:04:31.019Z,100643.63
2023-04-17T19:07:00.175Z,100646.19
2023-04-17T19:09:29.278Z,100645.13
2023-04-17T19:11:58.750Z,100653.78
2023-04-17T19:14:28.700Z,100648.59
2023-04-17T19:16:58.882Z,100647.81
2023-04-17T19:19:28.064Z,100648.63
2023-04-17T19:21:56.621Z,100655.75
2023-04-17T19:24:25.810Z,100654.16
2023-04-17T19:26:54.640Z,100647.16
2023-04-17T19:29:23.872Z,100653.38
2023-04-17T19:31:52.755Z,100650.69
2023-04-17T19:34:24.649Z,100650.78
2023-04-17T19:36:53.693Z,100649.88
2023-04-17T19:39:22.684Z,100652.63
2023-04-17T19:41:52.109Z,100656.94
2023-04-17T19:44:20.926Z,100657.75
2023-04-17T19:46:49.815Z,100653.41
2023-04-17T19:49:18.736Z,100647.47
2023-04-17T19:51:48.925Z,100652.66
2023-04-17T19:54:18.010Z,100656.25
2023-04-17T19:56:47.361Z,100645.75
2023-04-17T19:59:16.633Z,100654.50
2023-04-17T20:01:46.127Z,100650.22
2023-04-17T20:04:16.724Z,100639.69
2023-04-17T20:06:46.704Z,100645.84
2023-04-17T20:09:17.333Z,100637.31
2023-04-17T20:11:47.408Z,100649.41
2023-04-17T20:14:17.744Z,100642.53
2023-04-17T20:16:46.825Z,100643.34
2023-04-17T20:19:18.786Z,100642.53
2023-04-17T20:21:48.095Z,100645.94
2023-04-17T20:24:18.535Z,100637.34
2023-04-17T20:26:48.860Z,100639.06
2023-04-17T20:29:17.885Z,100642.50
2023-04-17T20:31:47.077Z,100645.94
2023-04-17T20:34:15.927Z,100644.34
2023-04-17T20:36:45.678Z,100633.03
2023-04-17T20:39:15.533Z,100636.56
2023-04-17T20:41:46.442Z,100641.00
2023-04-17T20:44:16.778Z,100635.88
2023-04-17T20:46:45.922Z,100635.91
2023-04-17T20:49:15.128Z,100635.88
2023-04-17T20:51:44.934Z,100647.31
2023-04-17T20:54:13.841Z,100641.28
2023-04-17T20:56:46.626Z,100636.88
2023-04-17T20:59:15.986Z,100643.81
2023-04-17T21:01:46.310Z,100642.13
2023-04-17T21:04:16.089Z,100638.69
2023-04-17T21:06:45.410Z,100636.19
2023-04-17T21:09:14.946Z,100636.28
2023-04-17T21:11:45.640Z,100643.16
2023-04-17T21:14:15.543Z,100642.34
2023-04-17T21:16:45.690Z,100635.47
2023-04-17T21:19:15.581Z,100645.03
2023-04-17T21:21:44.397Z,100641.59
2023-04-17T21:24:13.759Z,100644.38
2023-04-17T21:26:42.645Z,100645.13
2023-04-17T21:29:14.782Z,100646.97
2023-04-17T21:31:44.318Z,100645.31
2023-04-17T21:34:13.306Z,100644.56
2023-04-17T21:36:43.003Z,100635.06
2023-04-17T21:39:12.207Z,100640.19
2023-04-17T21:41:41.274Z,100641.94
2023-04-17T21:44:11.014Z,100634.22
2023-04-17T21:46:41.898Z,100637.75
2023-04-17T21:49:10.419Z,100638.50
2023-04-17T21:51:38.992Z,100642.03
2023-04-17T21:54:09.266Z,100634.25
2023-04-17T21:56:38.199Z,100636.78
2023-04-17T21:59:06.884Z,100641.09
2023-04-17T22:01:35.562Z,100642.94
2023-04-17T22:04:07.672Z,100646.44
2023-04-17T22:06:37.261Z,100646.44
2023-04-17T22:09:06.479Z,100648.22
2023-04-17T22:11:35.143Z,100647.34
2023-04-17T22:14:04.331Z,100648.22
2023-04-17T22:16:33.358Z,100649.19
2023-04-17T22:19:02.899Z,100648.25
2023-04-17T22:21:33.676Z,100646.69
2023-04-17T22:24:03.147Z,100640.50
2023-04-17T22:26:32.073Z,100650.97
2023-04-17T22:29:00.872Z,100650.94
2023-04-17T22:31:29.961Z,100648.31
2023-04-17T22:34:00.351Z,100651.78
2023-04-17T22:36:29.776Z,100648.47
2023-04-17T22:39:00.279Z,100642.41
2023-04-17T22:41:29.184Z,100646.84
2023-04-17T22:43:58.370Z,100652.09
2023-04-17T22:46:27.606Z,100655.63
2023-04-17T22:48:58.443Z,100653.84
2023-04-17T22:51:29.637Z,100652.22
2023-04-17T22:54:01.572Z,100650.50
2023-04-17T22:56:35.501Z,100644.38
2023-04-17T22:59:04.134Z,100648.72
2023-04-17T23:01:33.558Z,100646.16
2023-04-17T23:04:02.501Z,100637.38
2023-04-17T23:06:32.097Z,100646.97
2023-04-17T23:09:02.234Z,100634.72
2023-04-17T23:11:32.958Z,100640.00
2023-04-17T23:14:03.754Z,100641.75
2023-04-17T23:16:32.473Z,100638.25
2023-04-17T23:19:01.180Z,100640.91
2023-04-17T23:21:29.792Z,100636.53
2023-04-17T23:23:58.520Z,100637.47
2023-04-17T23:26:28.916Z,100643.59
2023-04-17T23:28:57.432Z,100630.59
2023-04-17T23:31:26.030Z,100637.66
2023-04-17T23:33:54.555Z,100640.25
2023-04-17T23:36:24.726Z,100640.25
2023-04-17T23:38:53.940Z,100639.50
2023-04-17T23:41:24.002Z,100635.13
2023-04-17T23:43:56.304Z,100643.84
2023-04-17T23:46:24.919Z,100637.88
2023-04-17T23:48:53.886Z,100639.50
2023-04-17T23:51:22.631Z,100639.50
2023-04-17T23:53:51.131Z,100638.66
2023-04-17T23:56:22.259Z,100642.16
2023-04-17T23:58:51.031Z,100643.91
